sensor_id;sensor_type;location;lat;lon;timestamp;pressure;altitude;pressure_sealevel;temperature;humidity
35878;BME280;21982;49.804;24.072;2024-03-23T00:55:33;96800.16;;;10.30;62.14
35878;BME280;21982;49.804;24.072;2024-03-23T00:57:58;96663.66;;;9.40;62.26
35878;BME280;21982;49.804;24.072;2024-03-23T01:00:23;96807.47;;;10.28;62.64
35878;BME280;21982;49.804;24.072;2024-03-23T01:02:52;96784.19;;;10.17;62.49
35878;BME280;21982;49.804;24.072;2024-03-23T01:05:18;96799.31;;;10.23;62.54
35878;BME280;21982;49.804;24.072;2024-03-23T01:07:43;96790.28;;;10.17;62.58
35878;BME280;21982;49.804;24.072;2024-03-23T01:10:09;96743.19;;;9.86;62.71
35878;BME280;21982;49.804;24.072;2024-03-23T01:12:34;96755.00;;;9.90;62.53
35878;BME280;21982;49.804;24.072;2024-03-23T01:15:00;96787.81;;;10.02;63.08
35878;BME280;21982;49.804;24.072;2024-03-23T01:17:25;96773.53;;;9.97;62.80
35878;BME280;21982;49.804;24.072;2024-03-23T01:19:51;96774.75;;;9.94;63.20
35878;BME280;21982;49.804;24.072;2024-03-23T01:22:16;96773.13;;;9.93;63.23
35878;BME280;21982;49.804;24.072;2024-03-23T01:24:41;96684.34;;;9.30;62.86
35878;BME280;21982;49.804;24.072;2024-03-23T01:27:08;96769.47;;;9.94;63.18
35878;BME280;21982;49.804;24.072;2024-03-23T01:29:36;96747.25;;;9.89;62.90
35878;BME280;21982;49.804;24.072;2024-03-23T01:32:02;96763.75;;;9.91;63.41
35878;BME280;21982;49.804;24.072;2024-03-23T01:34:27;96659.34;;;9.26;63.09
35878;BME280;21982;49.804;24.072;2024-03-23T01:36:53;96749.25;;;9.80;63.23
35878;BME280;21982;49.804;24.072;2024-03-23T01:39:21;96748.19;;;9.74;63.46
35878;BME280;21982;49.804;24.072;2024-03-23T01:41:47;96740.03;;;9.63;62.99
35878;BME280;21982;49.804;24.072;2024-03-23T01:44:12;96738.78;;;9.59;63.50
35878;BME280;21982;49.804;24.072;2024-03-23T01:46:38;96733.03;;;9.49;63.25
35878;BME280;21982;49.804;24.072;2024-03-23T01:49:07;96717.56;;;9.46;63.56
35878;BME280;21982;49.804;24.072;2024-03-23T01:51:33;96736.47;;;9.49;63.54
35878;BME280;21982;49.804;24.072;2024-03-23T01:53:59;96699.53;;;9.21;63.72
35878;BME280;21982;49.804;24.072;2024-03-23T01:56:35;96662.84;;;9.05;63.95
35878;BME280;21982;49.804;24.072;2024-03-23T01:59:04;96704.69;;;9.29;64.21
35878;BME280;21982;49.804;24.072;2024-03-23T02:01:35;96730.00;;;9.52;63.76
35878;BME280;21982;49.804;24.072;2024-03-23T02:04:03;96712.63;;;9.36;63.88
35878;BME280;21982;49.804;24.072;2024-03-23T02:06:32;96691.41;;;9.23;63.71
35878;BME280;21982;49.804;24.072;2024-03-23T02:08:58;96713.50;;;9.50;64.03
35878;BME280;21982;49.804;24.072;2024-03-23T02:11:23;96721.91;;;9.60;63.70
35878;BME280;21982;49.804;24.072;2024-03-23T02:13:49;96721.72;;;9.61;63.72
35878;BME280;21982;49.804;24.072;2024-03-23T02:16:14;96718.50;;;9.66;63.08
35878;BME280;21982;49.804;24.072;2024-03-23T02:18:40;96687.09;;;9.50;63.25
35878;BME280;21982;49.804;24.072;2024-03-23T02:21:05;96706.28;;;9.65;63.60
35878;BME280;21982;49.804;24.072;2024-03-23T02:23:31;96688.28;;;9.47;63.17
35878;BME280;21982;49.804;24.072;2024-03-23T02:25:56;96714.03;;;9.66;63.49
35878;BME280;21982;49.804;24.072;2024-03-23T02:28:22;96689.97;;;9.55;63.38
35878;BME280;21982;49.804;24.072;2024-03-23T02:30:51;96689.59;;;9.71;62.87
35878;BME280;21982;49.804;24.072;2024-03-23T02:33:16;96695.50;;;9.66;63.01
35878;BME280;21982;49.804;24.072;2024-03-23T02:35:45;96689.22;;;9.67;63.32
35878;BME280;21982;49.804;24.072;2024-03-23T02:38:11;96674.31;;;9.53;63.14
35878;BME280;21982;49.804;24.072;2024-03-23T02:40:36;96641.88;;;9.31;63.35
35878;BME280;21982;49.804;24.072;2024-03-23T02:43:02;96649.63;;;9.39;63.17
35878;BME280;21982;49.804;24.072;2024-03-23T02:45:28;96689.56;;;9.58;63.07
35878;BME280;21982;49.804;24.072;2024-03-23T02:47:53;96654.53;;;9.43;62.77
35878;BME280;21982;49.804;24.072;2024-03-23T02:50:19;96662.91;;;9.53;63.08
35878;BME280;21982;49.804;24.072;2024-03-23T02:52:45;96656.19;;;9.50;63.32
35878;BME280;21982;49.804;24.072;2024-03-23T02:55:10;96674.38;;;9.66;62.95
35878;BME280;21982;49.804;24.072;2024-03-23T02:57:36;96665.22;;;9.69;62.87
35878;BME280;21982;49.804;24.072;2024-03-23T03:00:01;96671.91;;;9.71;62.83
35878;BME280;21982;49.804;24.072;2024-03-23T03:02:27;96637.50;;;9.52;62.55
35878;BME280;21982;49.804;24.072;2024-03-23T03:04:52;96659.31;;;9.73;62.34
35878;BME280;21982;49.804;24.072;2024-03-23T03:07:18;96602.91;;;9.47;62.74
35878;BME280;21982;49.804;24.072;2024-03-23T03:09:43;96651.00;;;9.70;62.81
35878;BME280;21982;49.804;24.072;2024-03-23T03:12:09;96638.16;;;9.67;62.95
35878;BME280;21982;49.804;24.072;2024-03-23T03:14:34;96629.78;;;9.57;62.79
35878;BME280;21982;49.804;24.072;2024-03-23T03:17:00;96630.19;;;9.54;62.60
35878;BME280;21982;49.804;24.072;2024-03-23T03:19:26;96639.34;;;9.58;62.90
35878;BME280;21982;49.804;24.072;2024-03-23T03:21:51;96636.09;;;9.56;63.24
35878;BME280;21982;49.804;24.072;2024-03-23T03:24:17;96573.53;;;9.15;62.90
35878;BME280;21982;49.804;24.072;2024-03-23T03:26:42;96636.72;;;9.58;62.73
35878;BME280;21982;49.804;24.072;2024-03-23T03:29:08;96629.41;;;9.60;62.64
35878;BME280;21982;49.804;24.072;2024-03-23T03:31:33;96603.69;;;9.40;62.32
35878;BME280;21982;49.804;24.072;2024-03-23T03:33:59;96628.97;;;9.56;62.64
35878;BME280;21982;49.804;24.072;2024-03-23T03:36:24;96637.09;;;9.55;62.96
35878;BME280;21982;49.804;24.072;2024-03-23T03:38:49;96632.22;;;9.52;62.65
35878;BME280;21982;49.804;24.072;2024-03-23T03:41:15;96629.75;;;9.50;62.33
35878;BME280;21982;49.804;24.072;2024-03-23T03:43:41;96614.88;;;9.43;62.63
35878;BME280;21982;49.804;24.072;2024-03-23T03:46:06;96620.41;;;9.48;62.80
35878;BME280;21982;49.804;24.072;2024-03-23T03:48:33;96618.38;;;9.50;62.54
35878;BME280;21982;49.804;24.072;2024-03-23T03:50:58;96620.81;;;9.51;61.93
35878;BME280;21982;49.804;24.072;2024-03-23T03:53:24;96616.34;;;9.52;62.18
35878;BME280;21982;49.804;24.072;2024-03-23T03:55:50;96474.41;;;8.65;61.69
35878;BME280;21982;49.804;24.072;2024-03-23T03:58:15;96593.13;;;9.40;61.81
35878;BME280;21982;49.804;24.072;2024-03-23T04:00:41;96619.03;;;9.58;62.06
35878;BME280;21982;49.804;24.072;2024-03-23T04:03:06;96613.53;;;9.60;61.78
35878;BME280;21982;49.804;24.072;2024-03-23T04:05:31;96566.91;;;9.32;62.07
35878;BME280;21982;49.804;24.072;2024-03-23T04:07:58;96566.69;;;9.40;61.66
35878;BME280;21982;49.804;24.072;2024-03-23T04:10:23;96614.78;;;9.77;61.47
35878;BME280;21982;49.804;24.072;2024-03-23T04:12:50;96613.81;;;9.85;61.25
35878;BME280;21982;49.804;24.072;2024-03-23T04:15:16;96588.34;;;9.77;61.18
35878;BME280;21982;49.804;24.072;2024-03-23T04:17:41;96619.13;;;9.98;60.83
35878;BME280;21982;49.804;24.072;2024-03-23T04:20:09;96575.75;;;9.79;60.71
35878;BME280;21982;49.804;24.072;2024-03-23T04:22:39;96561.09;;;9.77;60.21
35878;BME280;21982;49.804;24.072;2024-03-23T04:25:05;96580.66;;;9.95;59.71
35878;BME280;21982;49.804;24.072;2024-03-23T04:27:37;96616.94;;;10.28;59.74
35878;BME280;21982;49.804;24.072;2024-03-23T04:30:04;96622.84;;;10.30;59.72
35878;BME280;21982;49.804;24.072;2024-03-23T04:32:35;96620.63;;;10.33;59.46
35878;BME280;21982;49.804;24.072;2024-03-23T04:35:00;96613.09;;;10.37;59.31
35878;BME280;21982;49.804;24.072;2024-03-23T04:37:26;96610.00;;;10.40;59.44
35878;BME280;21982;49.804;24.072;2024-03-23T04:39:51;96618.16;;;10.45;59.05
35878;BME280;21982;49.804;24.072;2024-03-23T04:42:16;96610.22;;;10.45;58.92
35878;BME280;21982;49.804;24.072;2024-03-23T04:44:42;96576.66;;;10.26;59.08
35878;BME280;21982;49.804;24.072;2024-03-23T04:47:08;96609.63;;;10.43;58.60
35878;BME280;21982;49.804;24.072;2024-03-23T04:49:33;96570.53;;;10.25;58.49
35878;BME280;21982;49.804;24.072;2024-03-23T04:51:58;96591.72;;;10.38;58.94
35878;BME280;21982;49.804;24.072;2024-03-23T04:54:24;96613.91;;;10.57;58.41
35878;BME280;21982;49.804;24.072;2024-03-23T04:56:49;96602.69;;;10.62;58.48
35878;BME280;21982;49.804;24.072;2024-03-23T04:59:15;96597.81;;;10.65;58.49
35878;BME280;21982;49.804;24.072;2024-03-23T05:01:40;96594.13;;;10.66;58.16
35878;BME280;21982;49.804;24.072;2024-03-23T05:04:07;96601.69;;;10.69;58.26
35878;BME280;21982;49.804;24.072;2024-03-23T05:06:33;96588.44;;;10.63;58.18
35878;BME280;21982;49.804;24.072;2024-03-23T05:08:59;96596.78;;;10.73;57.86
35878;BME280;21982;49.804;24.072;2024-03-23T05:11:26;96564.00;;;10.54;58.12
35878;BME280;21982;49.804;24.072;2024-03-23T05:13:52;96593.69;;;10.76;58.00
35878;BME280;21982;49.804;24.072;2024-03-23T05:16:17;96569.50;;;10.59;57.93
35878;BME280;21982;49.804;24.072;2024-03-23T05:18:43;96591.44;;;10.80;57.95
35878;BME280;21982;49.804;24.072;2024-03-23T05:21:12;96591.44;;;10.80;57.56
35878;BME280;21982;49.804;24.072;2024-03-23T05:23:37;96588.19;;;10.78;57.80
35878;BME280;21982;49.804;24.072;2024-03-23T05:26:03;96594.91;;;10.80;57.60
35878;BME280;21982;49.804;24.072;2024-03-23T05:28:29;96590.44;;;10.81;57.72
35878;BME280;21982;49.804;24.072;2024-03-23T05:30:55;96572.50;;;10.76;57.87
35878;BME280;21982;49.804;24.072;2024-03-23T05:33:22;96569.25;;;10.81;57.53
35878;BME280;21982;49.804;24.072;2024-03-23T05:35:56;96582.06;;;10.97;57.57
35878;BME280;21982;49.804;24.072;2024-03-23T05:38:21;96567.81;;;10.85;57.36
35878;BME280;21982;49.804;24.072;2024-03-23T05:40:57;96565.75;;;11.00;57.26
35878;BME280;21982;49.804;24.072;2024-03-23T05:43:23;96545.59;;;10.86;57.58
35878;BME280;21982;49.804;24.072;2024-03-23T05:46:06;96482.97;;;10.53;57.20
35878;BME280;21982;49.804;24.072;2024-03-23T05:48:35;96569.63;;;11.04;57.29
35878;BME280;21982;49.804;24.072;2024-03-23T05:51:01;96559.63;;;11.06;57.09
35878;BME280;21982;49.804;24.072;2024-03-23T05:53:26;96571.19;;;11.18;57.42
35878;BME280;21982;49.804;24.072;2024-03-23T05:56:01;96547.56;;;11.10;56.98
35878;BME280;21982;49.804;24.072;2024-03-23T05:58:30;96457.47;;;10.65;57.06
35878;BME280;21982;49.804;24.072;2024-03-23T06:01:00;96531.63;;;11.23;56.77
35878;BME280;21982;49.804;24.072;2024-03-23T06:03:26;96563.91;;;11.45;56.97
35878;BME280;21982;49.804;24.072;2024-03-23T06:05:52;96561.06;;;11.47;56.60
35878;BME280;21982;49.804;24.072;2024-03-23T06:08:20;96561.66;;;11.49;56.53
35878;BME280;21982;49.804;24.072;2024-03-23T06:10:46;96515.25;;;11.33;56.42
35878;BME280;21982;49.804;24.072;2024-03-23T06:13:12;96566.50;;;11.58;56.08
35878;BME280;21982;49.804;24.072;2024-03-23T06:15:38;96539.00;;;11.53;56.28
35878;BME280;21982;49.804;24.072;2024-03-23T06:18:04;96559.13;;;11.67;56.08
35878;BME280;21982;49.804;24.072;2024-03-23T06:20:30;96550.97;;;11.68;55.94
35878;BME280;21982;49.804;24.072;2024-03-23T06:22:55;96535.09;;;11.62;55.92
35878;BME280;21982;49.804;24.072;2024-03-23T06:25:21;96537.91;;;11.67;55.75
35878;BME280;21982;49.804;24.072;2024-03-23T06:27:46;96524.22;;;11.70;55.51
35878;BME280;21982;49.804;24.072;2024-03-23T06:30:12;96566.28;;;12.04;55.53
35878;BME280;21982;49.804;24.072;2024-03-23T06:32:37;96560.09;;;12.11;55.10
35878;BME280;21982;49.804;24.072;2024-03-23T06:35:03;96540.84;;;12.15;54.84
35878;BME280;21982;49.804;24.072;2024-03-23T06:37:36;96465.25;;;11.74;54.65
35878;BME280;21982;49.804;24.072;2024-03-23T06:40:01;96532.25;;;12.20;54.32
35878;BME280;21982;49.804;24.072;2024-03-23T06:42:27;96569.69;;;12.61;54.21
35878;BME280;21982;49.804;24.072;2024-03-23T06:44:52;96563.06;;;12.70;54.39
35878;BME280;21982;49.804;24.072;2024-03-23T06:47:18;96559.59;;;12.70;54.17
35878;BME280;21982;49.804;24.072;2024-03-23T06:49:43;96526.16;;;12.62;53.83
35878;BME280;21982;49.804;24.072;2024-03-23T06:52:08;96550.69;;;13.01;53.79
35878;BME280;21982;49.804;24.072;2024-03-23T06:54:34;96562.13;;;13.20;53.49
35878;BME280;21982;49.804;24.072;2024-03-23T06:56:59;96554.53;;;13.23;52.89
35878;BME280;21982;49.804;24.072;2024-03-23T06:59:25;96553.94;;;13.21;52.87
35878;BME280;21982;49.804;24.072;2024-03-23T07:01:50;96556.59;;;13.21;53.20
35878;BME280;21982;49.804;24.072;2024-03-23T07:04:16;96455.16;;;12.51;52.65
35878;BME280;21982;49.804;24.072;2024-03-23T07:06:45;96556.00;;;13.19;52.82
35878;BME280;21982;49.804;24.072;2024-03-23T07:09:11;96567.31;;;13.15;53.05
35878;BME280;21982;49.804;24.072;2024-03-23T07:11:37;96522.91;;;12.97;52.97
35878;BME280;21982;49.804;24.072;2024-03-23T07:14:02;96548.16;;;13.06;52.66
35878;BME280;21982;49.804;24.072;2024-03-23T07:16:28;96564.56;;;13.03;52.78
35878;BME280;21982;49.804;24.072;2024-03-23T07:18:54;96547.28;;;13.12;52.78
35878;BME280;21982;49.804;24.072;2024-03-23T07:21:19;96455.69;;;12.60;52.72
35878;BME280;21982;49.804;24.072;2024-03-23T07:23:45;96525.66;;;13.08;52.67
35878;BME280;21982;49.804;24.072;2024-03-23T07:26:10;96552.91;;;13.22;52.22
35878;BME280;21982;49.804;24.072;2024-03-23T07:28:35;96547.16;;;13.25;52.67
35878;BME280;21982;49.804;24.072;2024-03-23T07:31:05;96551.06;;;13.23;52.31
35878;BME280;21982;49.804;24.072;2024-03-23T07:33:31;96545.59;;;13.18;52.64
35878;BME280;21982;49.804;24.072;2024-03-23T07:35:57;96473.56;;;12.71;52.46
35878;BME280;21982;49.804;24.072;2024-03-23T07:38:23;96438.59;;;12.37;52.59
35878;BME280;21982;49.804;24.072;2024-03-23T07:40:48;96476.72;;;12.61;52.56
35878;BME280;21982;49.804;24.072;2024-03-23T07:43:19;96450.16;;;12.43;52.83
35878;BME280;21982;49.804;24.072;2024-03-23T07:45:51;96519.66;;;12.95;52.50
35878;BME280;21982;49.804;24.072;2024-03-23T07:48:17;96483.41;;;12.82;52.50
35878;BME280;21982;49.804;24.072;2024-03-23T07:50:42;96501.22;;;13.18;52.67
35878;BME280;21982;49.804;24.072;2024-03-23T07:53:08;96538.38;;;13.55;52.09
35878;BME280;21982;49.804;24.072;2024-03-23T07:55:33;96521.53;;;13.61;52.17
35878;BME280;21982;49.804;24.072;2024-03-23T07:57:59;96522.25;;;13.68;51.57
35878;BME280;21982;49.804;24.072;2024-03-23T08:00:24;96491.09;;;13.57;51.93
35878;BME280;21982;49.804;24.072;2024-03-23T08:02:51;96543.53;;;14.09;51.68
35878;BME280;21982;49.804;24.072;2024-03-23T08:05:16;96523.06;;;14.33;51.33
35878;BME280;21982;49.804;24.072;2024-03-23T08:07:42;96502.75;;;14.51;50.99
35878;BME280;21982;49.804;24.072;2024-03-23T08:10:10;96487.09;;;14.54;50.50
35878;BME280;21982;49.804;24.072;2024-03-23T08:12:38;96502.38;;;14.59;50.33
35878;BME280;21982;49.804;24.072;2024-03-23T08:15:06;96502.28;;;14.54;50.45
35878;BME280;21982;49.804;24.072;2024-03-23T08:17:31;96516.47;;;14.36;50.62
35878;BME280;21982;49.804;24.072;2024-03-23T08:22:28;96352.31;;;13.06;51.72
35878;BME280;21982;49.804;24.072;2024-03-23T08:24:53;96502.84;;;13.91;51.86
35878;BME280;21982;49.804;24.072;2024-03-23T08:27:18;96395.19;;;13.10;52.00
35878;BME280;21982;49.804;24.072;2024-03-23T08:29:45;96485.13;;;13.73;52.35
35878;BME280;21982;49.804;24.072;2024-03-23T08:32:10;96479.25;;;13.83;52.40
35878;BME280;21982;49.804;24.072;2024-03-23T08:34:37;96510.78;;;14.21;51.92
35878;BME280;21982;49.804;24.072;2024-03-23T08:37:03;96507.22;;;14.15;52.06
35878;BME280;21982;49.804;24.072;2024-03-23T08:39:28;96504.19;;;14.12;52.13
35878;BME280;21982;49.804;24.072;2024-03-23T08:41:53;96471.59;;;13.86;52.46
35878;BME280;21982;49.804;24.072;2024-03-23T08:44:19;96493.19;;;14.08;52.28
35878;BME280;21982;49.804;24.072;2024-03-23T08:46:44;96474.53;;;13.96;52.29
35878;BME280;21982;49.804;24.072;2024-03-23T08:49:10;96385.59;;;13.39;52.06
35878;BME280;21982;49.804;24.072;2024-03-23T08:51:36;96489.25;;;14.11;51.70
35878;BME280;21982;49.804;24.072;2024-03-23T08:54:02;96483.91;;;14.22;51.71
35878;BME280;21982;49.804;24.072;2024-03-23T08:56:27;96484.44;;;14.43;51.12
35878;BME280;21982;49.804;24.072;2024-03-23T08:58:53;96496.84;;;14.49;50.34
35878;BME280;21982;49.804;24.072;2024-03-23T09:01:18;96427.44;;;14.20;50.14
35878;BME280;21982;49.804;24.072;2024-03-23T09:03:44;96445.75;;;14.52;49.72
35878;BME280;21982;49.804;24.072;2024-03-23T09:06:12;96439.09;;;14.78;49.19
35878;BME280;21982;49.804;24.072;2024-03-23T09:08:38;96420.16;;;14.91;48.76
35878;BME280;21982;49.804;24.072;2024-03-23T09:11:09;96465.91;;;15.68;48.28
35878;BME280;21982;49.804;24.072;2024-03-23T09:13:36;96459.03;;;15.72;47.53
35878;BME280;21982;49.804;24.072;2024-03-23T09:16:02;96458.09;;;15.50;47.53
35878;BME280;21982;49.804;24.072;2024-03-23T09:18:31;96428.09;;;15.14;47.70
35878;BME280;21982;49.804;24.072;2024-03-23T09:20:56;96449.44;;;15.14;47.71
35878;BME280;21982;49.804;24.072;2024-03-23T09:23:22;96443.69;;;14.94;47.88
35878;BME280;21982;49.804;24.072;2024-03-23T09:25:47;96470.19;;;15.00;47.93
35878;BME280;21982;49.804;24.072;2024-03-23T09:28:13;96456.53;;;14.97;47.79
35878;BME280;21982;49.804;24.072;2024-03-23T09:30:38;96446.69;;;14.97;47.84
35878;BME280;21982;49.804;24.072;2024-03-23T09:33:13;96454.56;;;15.04;47.90
35878;BME280;21982;49.804;24.072;2024-03-23T09:35:43;96433.63;;;15.24;47.90
35878;BME280;21982;49.804;24.072;2024-03-23T09:38:12;96395.56;;;15.00;47.81
35878;BME280;21982;49.804;24.072;2024-03-23T09:40:41;96418.50;;;15.30;47.13
35878;BME280;21982;49.804;24.072;2024-03-23T09:43:09;96401.13;;;15.27;47.01
35878;BME280;21982;49.804;24.072;2024-03-23T09:45:39;96440.75;;;15.64;46.75
35878;BME280;21982;49.804;24.072;2024-03-23T09:48:06;96446.03;;;15.75;46.95
35878;BME280;21982;49.804;24.072;2024-03-23T09:50:33;96390.22;;;15.74;46.85
35878;BME280;21982;49.804;24.072;2024-03-23T09:52:58;96379.34;;;15.97;46.50
35878;BME280;21982;49.804;24.072;2024-03-23T09:55:24;96426.81;;;16.29;46.40
35878;BME280;21982;49.804;24.072;2024-03-23T09:57:50;96402.72;;;16.24;46.04
35878;BME280;21982;49.804;24.072;2024-03-23T10:00:15;96405.06;;;16.20;45.71
35878;BME280;21982;49.804;24.072;2024-03-23T10:02:41;96412.34;;;16.25;45.76
35878;BME280;21982;49.804;24.072;2024-03-23T10:05:27;96402.31;;;16.15;45.90
35878;BME280;21982;49.804;24.072;2024-03-23T10:07:53;96409.84;;;16.01;45.72
35878;BME280;21982;49.804;24.072;2024-03-23T10:10:19;96374.69;;;15.71;45.71
35878;BME280;21982;49.804;24.072;2024-03-23T10:12:48;96222.09;;;14.73;45.64
35878;BME280;21982;49.804;24.072;2024-03-23T10:15:25;96317.22;;;15.35;45.77
35878;BME280;21982;49.804;24.072;2024-03-23T10:17:51;96399.59;;;15.93;45.73
35878;BME280;21982;49.804;24.072;2024-03-23T10:20:21;96390.03;;;15.97;45.53
35878;BME280;21982;49.804;24.072;2024-03-23T10:22:50;96389.31;;;15.85;45.44
35878;BME280;21982;49.804;24.072;2024-03-23T10:25:22;96342.22;;;15.46;45.74
35878;BME280;21982;49.804;24.072;2024-03-23T10:28:00;96356.84;;;15.43;45.77
35878;BME280;21982;49.804;24.072;2024-03-23T10:30:27;96376.25;;;15.38;45.89
35878;BME280;21982;49.804;24.072;2024-03-23T10:33:13;96383.00;;;15.29;46.11
35878;BME280;21982;49.804;24.072;2024-03-23T10:35:40;96390.84;;;15.19;46.47
35878;BME280;21982;49.804;24.072;2024-03-23T10:38:07;96248.75;;;14.33;46.70
35878;BME280;21982;49.804;24.072;2024-03-23T10:40:38;96341.81;;;15.20;46.24
35878;BME280;21982;49.804;24.072;2024-03-23T10:43:11;96376.38;;;15.60;46.32
35878;BME280;21982;49.804;24.072;2024-03-23T10:45:37;96284.91;;;15.31;46.00
35878;BME280;21982;49.804;24.072;2024-03-23T10:48:03;96370.94;;;16.05;45.59
35878;BME280;21982;49.804;24.072;2024-03-23T10:50:29;96331.94;;;16.04;45.65
35878;BME280;21982;49.804;24.072;2024-03-23T10:52:55;96205.00;;;15.20;45.69
35878;BME280;21982;49.804;24.072;2024-03-23T10:55:25;96319.63;;;16.03;45.68
35878;BME280;21982;49.804;24.072;2024-03-23T10:57:56;96060.34;;;14.57;45.64
35878;BME280;21982;49.804;24.072;2024-03-23T11:00:24;96326.81;;;16.20;45.36
35878;BME280;21982;49.804;24.072;2024-03-23T11:02:49;96284.41;;;15.85;45.58
35878;BME280;21982;49.804;24.072;2024-03-23T11:07:50;96311.78;;;15.97;46.09
35878;BME280;21982;49.804;24.072;2024-03-23T11:10:26;96321.53;;;16.47;45.63
35878;BME280;21982;49.804;24.072;2024-03-23T11:12:53;96225.56;;;16.18;45.46
35878;BME280;21982;49.804;24.072;2024-03-23T11:15:18;96310.41;;;16.77;45.01
35878;BME280;21982;49.804;24.072;2024-03-23T11:18:05;96311.34;;;16.65;44.89
35878;BME280;21982;49.804;24.072;2024-03-23T11:20:33;96276.84;;;16.42;45.53
35878;BME280;21982;49.804;24.072;2024-03-23T11:22:59;96248.72;;;16.13;45.33
35878;BME280;21982;49.804;24.072;2024-03-23T11:25:26;96223.75;;;15.80;45.35
35878;BME280;21982;49.804;24.072;2024-03-23T11:28:10;96233.28;;;15.76;45.48
35878;BME280;21982;49.804;24.072;2024-03-23T11:30:36;96217.81;;;15.56;45.82
35878;BME280;21982;49.804;24.072;2024-03-23T11:33:04;96291.94;;;16.09;45.85
35878;BME280;21982;49.804;24.072;2024-03-23T11:35:32;96275.84;;;16.04;45.91
35878;BME280;21982;49.804;24.072;2024-03-23T11:38:14;96268.00;;;15.98;45.79
35878;BME280;21982;49.804;24.072;2024-03-23T11:43:09;96266.72;;;16.00;46.07
35878;BME280;21982;49.804;24.072;2024-03-23T11:45:42;96257.09;;;16.21;45.71
35878;BME280;21982;49.804;24.072;2024-03-23T11:48:10;96225.19;;;16.09;45.55
35878;BME280;21982;49.804;24.072;2024-03-23T11:50:38;96186.72;;;16.11;45.33
35878;BME280;21982;49.804;24.072;2024-03-23T11:55:58;96243.94;;;17.17;44.69
35878;BME280;21982;49.804;24.072;2024-03-23T11:58:25;96243.38;;;17.15;44.30
35878;BME280;21982;49.804;24.072;2024-03-23T12:01:12;96231.53;;;17.06;44.08
35878;BME280;21982;49.804;24.072;2024-03-23T12:03:38;96236.56;;;16.97;44.49
35878;BME280;21982;49.804;24.072;2024-03-23T12:06:04;96228.47;;;16.92;44.47
35878;BME280;21982;49.804;24.072;2024-03-23T12:08:35;96217.53;;;17.26;44.23
35878;BME280;21982;49.804;24.072;2024-03-23T12:11:16;96097.97;;;16.89;43.62
35878;BME280;21982;49.804;24.072;2024-03-23T12:13:45;95880.88;;;15.93;42.98
35878;BME280;21982;49.804;24.072;2024-03-23T12:16:18;96188.31;;;18.19;42.87
35878;BME280;21982;49.804;24.072;2024-03-23T12:18:49;96220.41;;;18.91;42.37
35878;BME280;21982;49.804;24.072;2024-03-23T12:21:16;95944.22;;;17.85;41.61
35878;BME280;21982;49.804;24.072;2024-03-23T12:23:43;96205.59;;;19.50;41.38
35878;BME280;21982;49.804;24.072;2024-03-23T12:26:12;95800.66;;;16.92;41.34
35878;BME280;21982;49.804;24.072;2024-03-23T12:28:38;95996.81;;;17.38;41.23
35878;BME280;21982;49.804;24.072;2024-03-23T12:31:07;96070.25;;;17.58;41.53
35878;BME280;21982;49.804;24.072;2024-03-23T12:33:33;95819.00;;;15.69;41.92
35878;BME280;21982;49.804;24.072;2024-03-23T12:36:01;95954.13;;;16.49;42.22
35878;BME280;21982;49.804;24.072;2024-03-23T12:38:27;95807.03;;;15.39;42.37
35878;BME280;21982;49.804;24.072;2024-03-23T12:40:52;95929.63;;;15.83;42.35
35878;BME280;21982;49.804;24.072;2024-03-23T12:43:18;95928.38;;;15.96;42.60
35878;BME280;21982;49.804;24.072;2024-03-23T12:45:48;95962.78;;;16.24;42.91
35878;BME280;21982;49.804;24.072;2024-03-23T12:48:13;96187.47;;;17.56;42.72
35878;BME280;21982;49.804;24.072;2024-03-23T12:50:39;95895.81;;;15.94;43.04
35878;BME280;21982;49.804;24.072;2024-03-23T12:53:04;96104.91;;;17.27;42.96
35878;BME280;21982;49.804;24.072;2024-03-23T12:55:30;95827.16;;;15.52;43.06
35878;BME280;21982;49.804;24.072;2024-03-23T12:57:55;96000.06;;;16.83;42.89
35878;BME280;21982;49.804;24.072;2024-03-23T13:02:57;96175.41;;;18.05;42.69
35878;BME280;21982;49.804;24.072;2024-03-23T13:05:25;96140.03;;;17.93;42.46
35878;BME280;21982;49.804;24.072;2024-03-23T13:07:53;95923.00;;;16.70;42.57
35878;BME280;21982;49.804;24.072;2024-03-23T13:10:19;96138.38;;;17.87;42.77
35878;BME280;21982;49.804;24.072;2024-03-23T13:12:47;96126.53;;;17.73;42.64
35878;BME280;21982;49.804;24.072;2024-03-23T13:15:16;96061.13;;;17.54;42.76
35878;BME280;21982;49.804;24.072;2024-03-23T13:17:42;95855.66;;;16.21;42.77
35878;BME280;21982;49.804;24.072;2024-03-23T13:20:08;96042.59;;;17.32;42.88
35878;BME280;21982;49.804;24.072;2024-03-23T13:22:42;96019.97;;;17.07;42.96
35878;BME280;21982;49.804;24.072;2024-03-23T13:25:13;96109.66;;;17.72;42.95
35878;BME280;21982;49.804;24.072;2024-03-23T13:27:38;96105.13;;;17.73;42.81
35878;BME280;21982;49.804;24.072;2024-03-23T13:30:04;96025.72;;;17.31;42.72
35878;BME280;21982;49.804;24.072;2024-03-23T13:32:30;96077.47;;;17.57;42.89
35878;BME280;21982;49.804;24.072;2024-03-23T13:34:56;96048.19;;;17.35;42.94
35878;BME280;21982;49.804;24.072;2024-03-23T13:37:21;96079.88;;;17.59;43.00
35878;BME280;21982;49.804;24.072;2024-03-23T13:39:47;96078.00;;;17.54;42.76
35878;BME280;21982;49.804;24.072;2024-03-23T13:42:12;96002.03;;;17.03;42.52
35878;BME280;21982;49.804;24.072;2024-03-23T13:44:38;96002.56;;;17.00;42.57
35878;BME280;21982;49.804;24.072;2024-03-23T13:47:04;96079.78;;;17.38;42.58
35878;BME280;21982;49.804;24.072;2024-03-23T13:49:30;96004.41;;;16.94;42.86
35878;BME280;21982;49.804;24.072;2024-03-23T13:51:57;95960.16;;;16.71;42.42
35878;BME280;21982;49.804;24.072;2024-03-23T13:54:24;96056.50;;;17.39;42.94
35878;BME280;21982;49.804;24.072;2024-03-23T13:56:53;96053.56;;;17.40;42.65
35878;BME280;21982;49.804;24.072;2024-03-23T13:59:23;96024.53;;;17.07;42.86